KCHA/CHA METAR and TAF weather

Enter ICAO airport designator
Station Type Date Time Source
KCHA METAR 2022/01/29 11:53 UTC NOAA

KCHA 291153Z 34010KT 10SM FEW033 M06/M13 A3025 RMK AO2 SLP250 T10611128 11017 21061 53026 $


Station Type Date Time Source
KCHA Decoded METAR 2022/01/29 11:53 UTC NOAA

LOVELL FIELD, TN, United States (KCHA) 35-02N 085-12W 210M
Jan 29, 2022 - 06:53 AM EST / 2022.01.29 1153 UTC
Wind: from the NNW (340 degrees) at 12 MPH (10 KT):0
Visibility: 10 mile(s):0
Sky conditions: mostly clear
Temperature: 21.0 F (-6.1 C)
Windchill: 8 F (-13 C):1
Dew Point: 9.0 F (-12.8 C)
Relative Humidity: 59%
Pressure (altimeter): 30.25 in. Hg (1024 hPa)
Pressure tendency: 0.08 inches (2.6 hPa) higher than three hours ago
ob: KCHA 291153Z 34010KT 10SM FEW033 M06/M13 A3025 RMK AO2 SLP250 T10611128 11017 21061 53026
cycle: 12

Station Type Date Time Source
KCHA TAF 2022/01/29 12:22 UTC NOAA

TAF KCHA 291120Z 2912/3012 33012G22KT P6SM SCT040
FM291400 33013KT P6SM SKC
FM292300 VRB03KT P6SM SCT250

Example: see airport list